sensor_id;sensor_type;location;lat;lon;timestamp;pressure;altitude;pressure_sealevel;temperature;humidity
67931;BME280;63902;52.000;5.954;2023-10-31T00:00:58;99088.00;;;10.17;100.00
67931;BME280;63902;52.000;5.954;2023-10-31T00:02:00;99089.03;;;10.14;100.00
67931;BME280;63902;52.000;5.954;2023-10-31T00:03:01;99090.94;;;10.12;100.00
67931;BME280;63902;52.000;5.954;2023-10-31T00:04:02;99089.53;;;10.06;100.00
67931;BME280;63902;52.000;5.954;2023-10-31T00:05:02;99100.44;;;10.02;100.00
67931;BME280;63902;52.000;5.954;2023-10-31T00:06:03;99100.75;;;9.97;100.00
67931;BME280;63902;52.000;5.954;2023-10-31T00:07:04;99106.78;;;9.99;100.00
67931;BME280;63902;52.000;5.954;2023-10-31T00:08:05;99106.25;;;9.94;100.00
67931;BME280;63902;52.000;5.954;2023-10-31T00:09:05;99118.06;;;9.89;100.00
67931;BME280;63902;52.000;5.954;2023-10-31T00:10:06;99111.28;;;9.84;100.00
67931;BME280;63902;52.000;5.954;2023-10-31T00:11:07;99115.84;;;9.82;100.00
67931;BME280;63902;52.000;5.954;2023-10-31T00:12:07;99110.75;;;9.79;100.00
67931;BME280;63902;52.000;5.954;2023-10-31T00:13:08;99115.09;;;9.80;100.00
67931;BME280;63902;52.000;5.954;2023-10-31T00:14:10;99125.03;;;9.77;100.00
67931;BME280;63902;52.000;5.954;2023-10-31T00:15:10;99114.63;;;9.74;100.00
67931;BME280;63902;52.000;5.954;2023-10-31T00:16:11;99130.63;;;9.72;100.00
67931;BME280;63902;52.000;5.954;2023-10-31T00:17:11;99130.84;;;9.69;100.00
67931;BME280;63902;52.000;5.954;2023-10-31T00:18:12;99133.56;;;9.68;100.00
67931;BME280;63902;52.000;5.954;2023-10-31T00:19:12;99130.84;;;9.69;100.00
67931;BME280;63902;52.000;5.954;2023-10-31T00:20:12;99137.06;;;9.68;100.00
67931;BME280;63902;52.000;5.954;2023-10-31T00:21:13;99135.47;;;9.66;100.00
67931;BME280;63902;52.000;5.954;2023-10-31T00:22:13;99148.81;;;9.64;100.00
67931;BME280;63902;52.000;5.954;2023-10-31T00:23:15;99149.75;;;9.63;100.00
67931;BME280;63902;52.000;5.954;2023-10-31T00:24:15;99142.84;;;9.60;100.00
67931;BME280;63902;52.000;5.954;2023-10-31T00:25:16;99140.41;;;9.57;100.00
67931;BME280;63902;52.000;5.954;2023-10-31T00:26:16;99150.97;;;9.57;100.00
67931;BME280;63902;52.000;5.954;2023-10-31T00:27:17;99140.19;;;9.60;100.00
67931;BME280;63902;52.000;5.954;2023-10-31T00:28:17;99128.41;;;9.52;100.00
67931;BME280;63902;52.000;5.954;2023-10-31T00:29:19;99144.75;;;9.58;100.00
67931;BME280;63902;52.000;5.954;2023-10-31T00:30:19;99143.03;;;9.57;100.00
67931;BME280;63902;52.000;5.954;2023-10-31T00:31:20;99136.81;;;9.58;100.00
67931;BME280;63902;52.000;5.954;2023-10-31T00:32:20;99135.41;;;9.53;100.00
67931;BME280;63902;52.000;5.954;2023-10-31T00:33:21;99139.47;;;9.58;100.00
67931;BME280;63902;52.000;5.954;2023-10-31T00:34:21;99149.09;;;9.59;100.00
67931;BME280;63902;52.000;5.954;2023-10-31T00:35:22;99141.28;;;9.58;100.00
67931;BME280;63902;52.000;5.954;2023-10-31T00:36:22;99151.94;;;9.56;100.00
67931;BME280;63902;52.000;5.954;2023-10-31T00:37:23;99160.66;;;9.58;100.00
67931;BME280;63902;52.000;5.954;2023-10-31T00:38:23;99156.28;;;9.57;100.00
67931;BME280;63902;52.000;5.954;2023-10-31T00:39:24;99160.66;;;9.58;100.00
67931;BME280;63902;52.000;5.954;2023-10-31T00:40:24;99169.50;;;9.57;100.00
67931;BME280;63902;52.000;5.954;2023-10-31T00:41:25;99164.22;;;9.57;100.00
67931;BME280;63902;52.000;5.954;2023-10-31T00:42:25;99158.19;;;9.55;100.00
67931;BME280;63902;52.000;5.954;2023-10-31T00:43:26;99164.41;;;9.54;100.00
67931;BME280;63902;52.000;5.954;2023-10-31T00:44:27;99169.72;;;9.54;100.00
67931;BME280;63902;52.000;5.954;2023-10-31T00:45:28;99167.19;;;9.53;100.00
67931;BME280;63902;52.000;5.954;2023-10-31T00:46:28;99167.19;;;9.53;100.00
67931;BME280;63902;52.000;5.954;2023-10-31T00:47:29;99171.63;;;9.52;100.00
67931;BME280;63902;52.000;5.954;2023-10-31T00:48:29;99171.50;;;9.54;100.00
67931;BME280;63902;52.000;5.954;2023-10-31T00:49:30;99170.66;;;9.53;100.00
67931;BME280;63902;52.000;5.954;2023-10-31T00:50:30;99169.91;;;9.51;100.00
67931;BME280;63902;52.000;5.954;2023-10-31T00:51:31;99177.84;;;9.51;100.00
67931;BME280;63902;52.000;5.954;2023-10-31T00:52:32;99178.81;;;9.50;100.00
67931;BME280;63902;52.000;5.954;2023-10-31T00:53:32;99181.53;;;9.49;100.00
67931;BME280;63902;52.000;5.954;2023-10-31T00:54:32;99180.81;;;9.47;100.00
67931;BME280;63902;52.000;5.954;2023-10-31T00:55:33;99184.28;;;9.47;100.00
67931;BME280;63902;52.000;5.954;2023-10-31T00:56:33;99193.06;;;9.48;100.00
67931;BME280;63902;52.000;5.954;2023-10-31T00:57:34;99187.03;;;9.46;100.00
67931;BME280;63902;52.000;5.954;2023-10-31T00:58:34;99192.44;;;9.44;100.00
67931;BME280;63902;52.000;5.954;2023-10-31T00:59:36;99202.06;;;9.45;100.00
67931;BME280;63902;52.000;5.954;2023-10-31T01:00:37;99191.47;;;9.45;100.00
67931;BME280;63902;52.000;5.954;2023-10-31T01:01:37;99198.44;;;9.46;100.00
67931;BME280;63902;52.000;5.954;2023-10-31T01:02:38;99195.72;;;9.48;100.00
67931;BME280;63902;52.000;5.954;2023-10-31T01:03:38;99197.59;;;9.46;100.00
67931;BME280;63902;52.000;5.954;2023-10-31T01:04:39;99195.91;;;9.45;100.00
67931;BME280;63902;52.000;5.954;2023-10-31T01:05:39;99190.13;;;9.38;100.00
67931;BME280;63902;52.000;5.954;2023-10-31T01:06:41;99192.97;;;9.35;100.00
67931;BME280;63902;52.000;5.954;2023-10-31T01:07:41;99201.69;;;9.37;100.00
67931;BME280;63902;52.000;5.954;2023-10-31T01:08:42;99206.88;;;9.38;100.00
67931;BME280;63902;52.000;5.954;2023-10-31T01:09:43;99214.16;;;9.35;100.00
67931;BME280;63902;52.000;5.954;2023-10-31T01:10:43;99212.38;;;9.35;100.00
67931;BME280;63902;52.000;5.954;2023-10-31T01:11:44;99210.66;;;9.34;100.00
67931;BME280;63902;52.000;5.954;2023-10-31T01:12:44;99208.28;;;9.30;100.00
67931;BME280;63902;52.000;5.954;2023-10-31T01:13:44;99216.06;;;9.33;100.00
67931;BME280;63902;52.000;5.954;2023-10-31T01:14:46;99216.06;;;9.33;100.00
67931;BME280;63902;52.000;5.954;2023-10-31T01:15:47;99225.03;;;9.30;100.00
67931;BME280;63902;52.000;5.954;2023-10-31T01:16:47;99226.91;;;9.28;100.00
67931;BME280;63902;52.000;5.954;2023-10-31T01:17:48;99228.72;;;9.28;100.00
67931;BME280;63902;52.000;5.954;2023-10-31T01:18:48;99231.34;;;9.28;100.00
67931;BME280;63902;52.000;5.954;2023-10-31T01:19:48;99237.56;;;9.27;100.00
67931;BME280;63902;52.000;5.954;2023-10-31T01:20:49;99235.88;;;9.26;100.00
67931;BME280;63902;52.000;5.954;2023-10-31T01:21:49;99231.63;;;9.23;100.00
67931;BME280;63902;52.000;5.954;2023-10-31T01:22:50;99226.59;;;9.18;100.00
67931;BME280;63902;52.000;5.954;2023-10-31T01:23:50;99237.94;;;9.21;100.00
67931;BME280;63902;52.000;5.954;2023-10-31T01:24:51;99241.25;;;9.24;100.00
67931;BME280;63902;52.000;5.954;2023-10-31T01:25:51;99236.25;;;9.19;100.00
67931;BME280;63902;52.000;5.954;2023-10-31T01:26:52;99243.06;;;9.24;100.00
67931;BME280;63902;52.000;5.954;2023-10-31T01:27:52;99243.06;;;9.24;100.00
67931;BME280;63902;52.000;5.954;2023-10-31T01:28:53;99255.38;;;9.25;100.00
67931;BME280;63902;52.000;5.954;2023-10-31T01:29:55;99245.88;;;9.21;100.00
67931;BME280;63902;52.000;5.954;2023-10-31T01:30:55;99255.56;;;9.22;100.00
67931;BME280;63902;52.000;5.954;2023-10-31T01:31:56;99251.09;;;9.22;100.00
67931;BME280;63902;52.000;5.954;2023-10-31T01:32:56;99257.31;;;9.21;100.00
67931;BME280;63902;52.000;5.954;2023-10-31T01:33:57;99260.84;;;9.22;100.00
67931;BME280;63902;52.000;5.954;2023-10-31T01:34:57;99251.19;;;9.21;100.00
67931;BME280;63902;52.000;5.954;2023-10-31T01:35:57;99253.81;;;9.21;100.00
67931;BME280;63902;52.000;5.954;2023-10-31T01:36:58;99260.06;;;9.19;100.00
67931;BME280;63902;52.000;5.954;2023-10-31T01:37:58;99261.00;;;9.18;100.00
67931;BME280;63902;52.000;5.954;2023-10-31T01:38:59;99262.72;;;9.19;100.00
67931;BME280;63902;52.000;5.954;2023-10-31T01:39:59;99258.34;;;9.18;100.00
67931;BME280;63902;52.000;5.954;2023-10-31T01:41:00;99261.19;;;9.15;100.00
67931;BME280;63902;52.000;5.954;2023-10-31T01:42:00;99268.00;;;9.19;100.00
67931;BME280;63902;52.000;5.954;2023-10-31T01:43:01;99273.31;;;9.19;100.00
67931;BME280;63902;52.000;5.954;2023-10-31T01:44:01;99270.66;;;9.19;100.00
67931;BME280;63902;52.000;5.954;2023-10-31T01:45:03;99275.00;;;9.21;100.00
67931;BME280;63902;52.000;5.954;2023-10-31T01:46:05;99275.94;;;9.19;100.00
67931;BME280;63902;52.000;5.954;2023-10-31T01:47:05;99272.47;;;9.19;100.00
67931;BME280;63902;52.000;5.954;2023-10-31T01:48:06;99273.31;;;9.19;100.00
67931;BME280;63902;52.000;5.954;2023-10-31T01:49:06;99275.84;;;9.21;100.00
67931;BME280;63902;52.000;5.954;2023-10-31T01:50:08;99274.06;;;9.22;100.00
67931;BME280;63902;52.000;5.954;2023-10-31T01:51:09;99272.53;;;9.17;100.00
67931;BME280;63902;52.000;5.954;2023-10-31T01:52:10;99286.34;;;9.23;100.00
67931;BME280;63902;52.000;5.954;2023-10-31T01:53:10;99279.34;;;9.22;100.00
67931;BME280;63902;52.000;5.954;2023-10-31T01:54:12;99275.75;;;9.23;100.00
67931;BME280;63902;52.000;5.954;2023-10-31T01:55:13;99279.25;;;9.23;100.00
67931;BME280;63902;52.000;5.954;2023-10-31T01:56:14;99275.09;;;9.19;100.00
67931;BME280;63902;52.000;5.954;2023-10-31T01:57:14;99274.81;;;9.24;100.00
67931;BME280;63902;52.000;5.954;2023-10-31T01:58:15;99284.53;;;9.23;100.00
67931;BME280;63902;52.000;5.954;2023-10-31T01:59:16;99276.59;;;9.23;100.00
67931;BME280;63902;52.000;5.954;2023-10-31T02:00:18;99288.88;;;9.24;100.00
67931;BME280;63902;52.000;5.954;2023-10-31T02:01:19;99283.69;;;9.23;100.00
67931;BME280;63902;52.000;5.954;2023-10-31T02:02:20;99266.59;;;9.14;100.00
67931;BME280;63902;52.000;5.954;2023-10-31T02:03:22;99281.03;;;9.23;100.00
67931;BME280;63902;52.000;5.954;2023-10-31T02:04:23;99286.16;;;9.26;100.00
67931;BME280;63902;52.000;5.954;2023-10-31T02:05:24;99282.09;;;9.20;100.00
67931;BME280;63902;52.000;5.954;2023-10-31T02:06:24;99293.13;;;9.27;100.00
67931;BME280;63902;52.000;5.954;2023-10-31T02:07:25;99292.22;;;9.28;100.00
67931;BME280;63902;52.000;5.954;2023-10-31T02:08:25;99285.38;;;9.24;100.00
67931;BME280;63902;52.000;5.954;2023-10-31T02:09:26;99290.41;;;9.28;100.00
67931;BME280;63902;52.000;5.954;2023-10-31T02:10:26;99293.91;;;9.29;100.00
67931;BME280;63902;52.000;5.954;2023-10-31T02:11:27;99292.22;;;9.28;100.00
67931;BME280;63902;52.000;5.954;2023-10-31T02:12:34;99287.19;;;9.23;100.00
67931;BME280;63902;52.000;5.954;2023-10-31T02:13:36;99288.59;;;9.29;100.00
67931;BME280;63902;52.000;5.954;2023-10-31T02:14:36;99299.97;;;9.31;100.00
67931;BME280;63902;52.000;5.954;2023-10-31T02:15:38;99291.25;;;9.29;100.00
67931;BME280;63902;52.000;5.954;2023-10-31T02:16:39;99288.53;;;9.30;100.00
67931;BME280;63902;52.000;5.954;2023-10-31T02:17:39;99289.25;;;9.32;100.00
67931;BME280;63902;52.000;5.954;2023-10-31T02:18:40;99292.03;;;9.31;100.00
67931;BME280;63902;52.000;5.954;2023-10-31T02:19:40;99288.41;;;9.32;100.00
67931;BME280;63902;52.000;5.954;2023-10-31T02:20:41;99297.22;;;9.32;100.00
67931;BME280;63902;52.000;5.954;2023-10-31T02:21:43;99285.97;;;9.29;100.00
67931;BME280;63902;52.000;5.954;2023-10-31T02:22:43;99292.09;;;9.29;100.00
67931;BME280;63902;52.000;5.954;2023-10-31T02:23:55;99296.34;;;9.32;100.00
67931;BME280;63902;52.000;5.954;2023-10-31T02:24:56;99292.78;;;9.33;100.00
67931;BME280;63902;52.000;5.954;2023-10-31T02:25:56;99297.22;;;9.32;100.00
67931;BME280;63902;52.000;5.954;2023-10-31T02:26:57;99298.09;;;9.33;100.00
67931;BME280;63902;52.000;5.954;2023-10-31T02:27:58;99298.09;;;9.33;100.00
67931;BME280;63902;52.000;5.954;2023-10-31T02:28:59;99298.09;;;9.33;100.00
67931;BME280;63902;52.000;5.954;2023-10-31T02:30:00;99297.13;;;9.34;100.00
67931;BME280;63902;52.000;5.954;2023-10-31T02:31:00;99292.22;;;9.28;100.00
67931;BME280;63902;52.000;5.954;2023-10-31T02:32:01;99303.19;;;9.36;100.00
67931;BME280;63902;52.000;5.954;2023-10-31T02:33:01;99300.63;;;9.34;100.00
67931;BME280;63902;52.000;5.954;2023-10-31T02:34:02;99301.47;;;9.35;100.00
67931;BME280;63902;52.000;5.954;2023-10-31T02:35:03;99296.16;;;9.35;100.00
67931;BME280;63902;52.000;5.954;2023-10-31T02:36:04;99288.59;;;9.29;100.00
67931;BME280;63902;52.000;5.954;2023-10-31T02:37:06;99297.91;;;9.36;100.00
67931;BME280;63902;52.000;5.954;2023-10-31T02:38:06;99285.78;;;9.32;100.00
67931;BME280;63902;52.000;5.954;2023-10-31T02:39:07;99304.88;;;9.37;100.00
67931;BME280;63902;52.000;5.954;2023-10-31T02:40:08;99301.38;;;9.36;100.00
67931;BME280;63902;52.000;5.954;2023-10-31T02:41:09;99295.13;;;9.37;100.00
67931;BME280;63902;52.000;5.954;2023-10-31T02:42:09;99290.88;;;9.35;100.00
67931;BME280;63902;52.000;5.954;2023-10-31T02:43:10;99289.38;;;9.31;100.00
67931;BME280;63902;52.000;5.954;2023-10-31T02:44:10;99297.78;;;9.37;100.00
67931;BME280;63902;52.000;5.954;2023-10-31T02:45:11;99308.28;;;9.39;100.00
67931;BME280;63902;52.000;5.954;2023-10-31T02:46:12;99303.06;;;9.37;100.00
67931;BME280;63902;52.000;5.954;2023-10-31T02:47:12;99297.03;;;9.35;100.00
67931;BME280;63902;52.000;5.954;2023-10-31T02:48:13;99303.84;;;9.39;100.00
67931;BME280;63902;52.000;5.954;2023-10-31T02:49:13;99303.75;;;9.41;100.00
67931;BME280;63902;52.000;5.954;2023-10-31T02:50:14;99303.66;;;9.43;100.00
67931;BME280;63902;52.000;5.954;2023-10-31T02:51:14;99304.50;;;9.43;100.00
67931;BME280;63902;52.000;5.954;2023-10-31T02:52:16;99310.75;;;9.42;100.00
67931;BME280;63902;52.000;5.954;2023-10-31T02:53:17;99302.69;;;9.44;100.00
67931;BME280;63902;52.000;5.954;2023-10-31T02:54:18;99306.22;;;9.44;100.00
67931;BME280;63902;52.000;5.954;2023-10-31T02:55:19;99309.78;;;9.43;100.00
67931;BME280;63902;52.000;5.954;2023-10-31T02:56:19;99311.50;;;9.44;100.00
67931;BME280;63902;52.000;5.954;2023-10-31T02:57:19;99305.25;;;9.45;100.00
67931;BME280;63902;52.000;5.954;2023-10-31T02:58:20;99301.78;;;9.45;100.00
67931;BME280;63902;52.000;5.954;2023-10-31T02:59:20;99309.59;;;9.46;100.00
67931;BME280;63902;52.000;5.954;2023-10-31T03:00:21;99306.09;;;9.46;100.00
67931;BME280;63902;52.000;5.954;2023-10-31T03:01:21;99299.00;;;9.46;100.00
67931;BME280;63902;52.000;5.954;2023-10-31T03:02:22;99305.19;;;9.47;100.00
67931;BME280;63902;52.000;5.954;2023-10-31T03:03:22;99297.41;;;9.44;100.00
67931;BME280;63902;52.000;5.954;2023-10-31T03:04:23;99299.78;;;9.48;100.00
67931;BME280;63902;52.000;5.954;2023-10-31T03:05:23;99298.81;;;9.49;100.00
67931;BME280;63902;52.000;5.954;2023-10-31T03:06:24;99297.91;;;9.50;100.00
67931;BME280;63902;52.000;5.954;2023-10-31T03:07:26;99290.88;;;9.49;100.00
67931;BME280;63902;52.000;5.954;2023-10-31T03:08:26;99300.63;;;9.49;100.00
67931;BME280;63902;52.000;5.954;2023-10-31T03:09:27;99291.75;;;9.50;100.00
67931;BME280;63902;52.000;5.954;2023-10-31T03:10:27;99297.13;;;9.48;100.00
67931;BME280;63902;52.000;5.954;2023-10-31T03:11:28;99292.69;;;9.49;100.00
67931;BME280;63902;52.000;5.954;2023-10-31T03:12:28;99289.19;;;9.48;100.00
67931;BME280;63902;52.000;5.954;2023-10-31T03:13:29;99290.16;;;9.47;100.00
67931;BME280;63902;52.000;5.954;2023-10-31T03:14:29;99295.25;;;9.50;100.00
67931;BME280;63902;52.000;5.954;2023-10-31T03:15:29;99294.28;;;9.51;100.00
67931;BME280;63902;52.000;5.954;2023-10-31T03:16:30;99294.50;;;9.48;100.00
67931;BME280;63902;52.000;5.954;2023-10-31T03:17:30;99302.25;;;9.51;100.00
67931;BME280;63902;52.000;5.954;2023-10-31T03:18:31;99301.41;;;9.51;100.00
67931;BME280;63902;52.000;5.954;2023-10-31T03:19:31;99298.81;;;9.49;100.00
67931;BME280;63902;52.000;5.954;2023-10-31T03:20:32;99291.06;;;9.46;100.00
67931;BME280;63902;52.000;5.954;2023-10-31T03:21:32;99301.47;;;9.49;100.00
67931;BME280;63902;52.000;5.954;2023-10-31T03:22:34;99298.81;;;9.49;100.00
67931;BME280;63902;52.000;5.954;2023-10-31T03:23:35;99293.53;;;9.49;100.00
67931;BME280;63902;52.000;5.954;2023-10-31T03:24:35;99302.44;;;9.48;100.00
67931;BME280;63902;52.000;5.954;2023-10-31T03:25:35;99298.81;;;9.49;100.00
67931;BME280;63902;52.000;5.954;2023-10-31T03:26:36;99295.63;;;9.44;100.00
67931;BME280;63902;52.000;5.954;2023-10-31T03:27:36;99304.13;;;9.49;100.00
67931;BME280;63902;52.000;5.954;2023-10-31T03:28:37;99305.06;;;9.48;100.00
67931;BME280;63902;52.000;5.954;2023-10-31T03:29:37;99305.00;;;9.50;100.00
67931;BME280;63902;52.000;5.954;2023-10-31T03:30:38;99307.66;;;9.50;100.00
67931;BME280;63902;52.000;5.954;2023-10-31T03:31:38;99305.00;;;9.50;100.00
67931;BME280;63902;52.000;5.954;2023-10-31T03:32:39;99310.28;;;9.50;100.00
67931;BME280;63902;52.000;5.954;2023-10-31T03:33:39;99307.53;;;9.51;100.00
67931;BME280;63902;52.000;5.954;2023-10-31T03:34:40;99312.06;;;9.49;100.00
67931;BME280;63902;52.000;5.954;2023-10-31T03:35:40;99302.63;;;9.45;100.00
67931;BME280;63902;52.000;5.954;2023-10-31T03:36:41;99306.03;;;9.47;100.00
67931;BME280;63902;52.000;5.954;2023-10-31T03:37:43;99318.13;;;9.51;100.00
67931;BME280;63902;52.000;5.954;2023-10-31T03:38:43;99304.31;;;9.46;100.00
67931;BME280;63902;52.000;5.954;2023-10-31T03:39:44;99320.75;;;9.51;100.00
67931;BME280;63902;52.000;5.954;2023-10-31T03:40:45;99312.81;;;9.51;100.00
67931;BME280;63902;52.000;5.954;2023-10-31T03:41:45;99317.34;;;9.49;100.00
67931;BME280;63902;52.000;5.954;2023-10-31T03:42:45;99316.31;;;9.52;100.00
67931;BME280;63902;52.000;5.954;2023-10-31T03:43:46;99312.81;;;9.51;100.00
67931;BME280;63902;52.000;5.954;2023-10-31T03:44:46;99316.25;;;9.53;100.00
67931;BME280;63902;52.000;5.954;2023-10-31T03:45:47;99319.84;;;9.52;100.00
67931;BME280;63902;52.000;5.954;2023-10-31T03:46:47;99324.19;;;9.53;100.00
67931;BME280;63902;52.000;5.954;2023-10-31T03:47:48;99323.34;;;9.53;100.00
67931;BME280;63902;52.000;5.954;2023-10-31T03:48:48;99319.34;;;9.46;100.00
67931;BME280;63902;52.000;5.954;2023-10-31T03:49:49;99328.63;;;9.53;100.00
67931;BME280;63902;52.000;5.954;2023-10-31T03:50:49;99329.47;;;9.53;100.00
67931;BME280;63902;52.000;5.954;2023-10-31T03:51:50;99328.72;;;9.51;100.00
67931;BME280;63902;52.000;5.954;2023-10-31T03:52:51;99328.63;;;9.53;100.00
67931;BME280;63902;52.000;5.954;2023-10-31T03:53:52;99337.41;;;9.53;100.00
67931;BME280;63902;52.000;5.954;2023-10-31T03:54:52;99339.28;;;9.51;100.00
67931;BME280;63902;52.000;5.954;2023-10-31T03:55:53;99342.91;;;9.50;100.00
67931;BME280;63902;52.000;5.954;2023-10-31T03:56:53;99350.66;;;9.53;100.00
67931;BME280;63902;52.000;5.954;2023-10-31T03:57:54;99335.16;;;9.47;100.00
67931;BME280;63902;52.000;5.954;2023-10-31T03:58:54;99345.34;;;9.53;100.00
67931;BME280;63902;52.000;5.954;2023-10-31T03:59:55;99353.28;;;9.53;100.00
67931;BME280;63902;52.000;5.954;2023-10-31T04:00:55;99348.84;;;9.54;100.00
67931;BME280;63902;52.000;5.954;2023-10-31T04:01:55;99353.28;;;9.53;100.00
67931;BME280;63902;52.000;5.954;2023-10-31T04:02:56;99350.06;;;9.48;100.00
67931;BME280;63902;52.000;5.954;2023-10-31T04:03:56;99358.59;;;9.53;100.00
67931;BME280;63902;52.000;5.954;2023-10-31T04:04:57;99360.38;;;9.53;100.00
67931;BME280;63902;52.000;5.954;2023-10-31T04:05:57;99367.50;;;9.52;100.00
67931;BME280;63902;52.000;5.954;2023-10-31T04:06:58;99361.31;;;9.52;100.00
67931;BME280;63902;52.000;5.954;2023-10-31T04:08:00;99366.59;;;9.52;100.00
67931;BME280;63902;52.000;5.954;2023-10-31T04:09:00;99365.69;;;9.53;100.00
67931;BME280;63902;52.000;5.954;2023-10-31T04:10:01;99372.78;;;9.52;100.00
67931;BME280;63902;52.000;5.954;2023-10-31T04:11:01;99376.34;;;9.51;100.00
67931;BME280;63902;52.000;5.954;2023-10-31T04:12:02;99365.75;;;9.51;100.00
67931;BME280;63902;52.000;5.954;2023-10-31T04:13:03;99372.00;;;9.50;100.00
67931;BME280;63902;52.000;5.954;2023-10-31T04:14:03;99372.94;;;9.49;100.00
67931;BME280;63902;52.000;5.954;2023-10-31T04:15:04;99371.91;;;9.52;100.00
67931;BME280;63902;52.000;5.954;2023-10-31T04:16:06;99372.00;;;9.50;100.00
67931;BME280;63902;52.000;5.954;2023-10-31T04:17:06;99383.44;;;9.51;100.00
67931;BME280;63902;52.000;5.954;2023-10-31T04:18:07;99377.31;;;9.50;100.00
67931;BME280;63902;52.000;5.954;2023-10-31T04:19:07;99374.66;;;9.50;100.00
67931;BME280;63902;52.000;5.954;2023-10-31T04:20:08;99378.22;;;9.49;100.00
67931;BME280;63902;52.000;5.954;2023-10-31T04:21:09;99368.00;;;9.43;100.00
67931;BME280;63902;52.000;5.954;2023-10-31T04:22:09;99381.81;;;9.48;100.00
67931;BME280;63902;52.000;5.954;2023-10-31T04:23:11;99389.88;;;9.47;100.00
67931;BME280;63902;52.000;5.954;2023-10-31T04:24:11;99387.13;;;9.48;100.00
67931;BME280;63902;52.000;5.954;2023-10-31T04:25:12;99377.50;;;9.47;100.00
67931;BME280;63902;52.000;5.954;2023-10-31T04:26:12;99393.25;;;9.49;100.00
67931;BME280;63902;52.000;5.954;2023-10-31T04:27:13;99385.44;;;9.47;100.00
67931;BME280;63902;52.000;5.954;2023-10-31T04:28:13;99387.13;;;9.48;100.00
67931;BME280;63902;52.000;5.954;2023-10-31T04:29:14;99388.91;;;9.48;100.00
67931;BME280;63902;52.000;5.954;2023-10-31T04:30:15;99384.84;;;9.42;100.00
67931;BME280;63902;52.000;5.954;2023-10-31T04:31:16;99393.38;;;9.47;100.00
67931;BME280;63902;52.000;5.954;2023-10-31T04:32:16;99400.47;;;9.47;100.00
67931;BME280;63902;52.000;5.954;2023-10-31T04:33:17;99396.09;;;9.46;100.00
67931;BME280;63902;52.000;5.954;2023-10-31T04:34:17;99399.59;;;9.46;100.00
67931;BME280;63902;52.000;5.954;2023-10-31T04:35:17;99403.25;;;9.44;100.00
67931;BME280;63902;52.000;5.954;2023-10-31T04:36:18;99405.75;;;9.47;100.00
67931;BME280;63902;52.000;5.954;2023-10-31T04:37:18;99407.63;;;9.45;100.00
67931;BME280;63902;52.000;5.954;2023-10-31T04:38:20;99392.97;;;9.39;100.00
67931;BME280;63902;52.000;5.954;2023-10-31T04:39:21;99412.81;;;9.46;100.00
67931;BME280;63902;52.000;5.954;2023-10-31T04:40:21;99415.47;;;9.46;100.00
67931;BME280;63902;52.000;5.954;2023-10-31T04:41:21;99419.00;;;9.47;100.00
67931;BME280;63902;52.000;5.954;2023-10-31T04:42:22;99403.44;;;9.40;100.00
67931;BME280;63902;52.000;5.954;2023-10-31T04:43:22;99396.66;;;9.36;100.00
67931;BME280;63902;52.000;5.954;2023-10-31T04:44:23;99419.06;;;9.45;100.00
67931;BME280;63902;52.000;5.954;2023-10-31T04:45:23;99410.28;;;9.45;100.00
67931;BME280;63902;52.000;5.954;2023-10-31T04:46:24;99424.34;;;9.45;100.00
67931;BME280;63902;52.000;5.954;2023-10-31T04:47:25;99424.44;;;9.44;100.00
67931;BME280;63902;52.000;5.954;2023-10-31T04:48:26;99431.53;;;9.43;100.00
67931;BME280;63902;52.000;5.954;2023-10-31T04:49:26;99427.97;;;9.44;100.00
67931;BME280;63902;52.000;5.954;2023-10-31T04:50:26;99429.72;;;9.44;100.00
67931;BME280;63902;52.000;5.954;2023-10-31T04:51:27;99427.00;;;9.45;100.00
67931;BME280;63902;52.000;5.954;2023-10-31T04:52:27;99429.84;;;9.42;100.00
67931;BME280;63902;52.000;5.954;2023-10-31T04:53:29;99435.03;;;9.44;100.00
67931;BME280;63902;52.000;5.954;2023-10-31T04:54:30;99429.84;;;9.42;100.00
67931;BME280;63902;52.000;5.954;2023-10-31T04:55:30;99438.53;;;9.44;100.00
67931;BME280;63902;52.000;5.954;2023-10-31T04:56:31;99435.13;;;9.42;100.00
67931;BME280;63902;52.000;5.954;2023-10-31T04:57:31;99435.13;;;9.42;100.00
67931;BME280;63902;52.000;5.954;2023-10-31T04:58:32;99442.13;;;9.43;100.00
67931;BME280;63902;52.000;5.954;2023-10-31T04:59:32;99442.03;;;9.45;100.00
67931;BME280;63902;52.000;5.954;2023-10-31T05:00:32;99440.25;;;9.45;100.00
67931;BME280;63902;52.000;5.954;2023-10-31T05:01:33;99447.22;;;9.46;100.00
67931;BME280;63902;52.000;5.954;2023-10-31T05:02:33;99444.69;;;9.45;100.00
67931;BME280;63902;52.000;5.954;2023-10-31T05:03:34;99452.69;;;9.43;100.00
67931;BME280;63902;52.000;5.954;2023-10-31T05:04:38;99445.78;;;9.40;100.00
67931;BME280;63902;52.000;5.954;2023-10-31T05:05:38;99452.81;;;9.41;100.00
67931;BME280;63902;52.000;5.954;2023-10-31T05:06:39;99449.31;;;9.41;100.00
67931;BME280;63902;52.000;5.954;2023-10-31T05:07:39;99450.16;;;9.41;100.00
67931;BME280;63902;52.000;5.954;2023-10-31T05:08:41;99458.09;;;9.41;100.00
67931;BME280;63902;52.000;5.954;2023-10-31T05:09:41;99452.88;;;9.40;100.00
67931;BME280;63902;52.000;5.954;2023-10-31T05:10:42;99454.59;;;9.41;100.00
67931;BME280;63902;52.000;5.954;2023-10-31T05:11:42;99455.72;;;9.37;100.00
67931;BME280;63902;52.000;5.954;2023-10-31T05:12:43;99468.75;;;9.40;100.00
67931;BME280;63902;52.000;5.954;2023-10-31T05:13:43;99467.06;;;9.39;100.00
67931;BME280;63902;52.000;5.954;2023-10-31T05:14:44;99467.06;;;9.39;100.00
67931;BME280;63902;52.000;5.954;2023-10-31T05:15:44;99464.41;;;9.39;100.00
67931;BME280;63902;52.000;5.954;2023-10-31T05:16:45;99457.59;;;9.35;100.00
67931;BME280;63902;52.000;5.954;2023-10-31T05:17:45;99465.34;;;9.38;100.00
67931;BME280;63902;52.000;5.954;2023-10-31T05:18:46;99468.00;;;9.38;100.00
67931;BME280;63902;52.000;5.954;2023-10-31T05:19:46;99465.44;;;9.36;100.00
67931;BME280;63902;52.000;5.954;2023-10-31T05:20:47;99463.06;;;9.32;100.00
67931;BME280;63902;52.000;5.954;2023-10-31T05:21:47;99468.09;;;9.36;100.00